Deora, Colorado
Current Conditions -  °F | °C
As of 9:53 PM on Saturday 22 Nov 2014 (Local Time) from KLHX Reporting Station
Clear Clear  
Wind Chill: 44°   Ceiling: Unl
Heat Index: 49°   Visibility: 10mi
Dew Point: 28°   Wind: 12mph
Humidity: 44%   Direction: 290°WNW
Pressure: 29.53"   Gusts: NA
Location:  37.8567°N, 103.111°W
Report Text: KLHX 230453Z AUTO 29010KT 10SM CLR 09/M02 A2953 RMK AO2 SLP973 T00941022 $
Loading
Personal Weather Stations






























Interactive Weather Map New forecast layout! Learn more

10-Day Weather Forecast

Advertisements
Track Severe Weather on mobile